createdAt,value
2023-01-01T00:00:43.927Z,5.16
2023-01-01T00:05:45.594Z,5.06
2023-01-01T00:10:47.229Z,5.04
2023-01-01T00:15:48.815Z,5.17
2023-01-01T00:20:50.699Z,5.39
2023-01-01T00:25:52.525Z,5.37
2023-01-01T00:30:54.232Z,5.50
2023-01-01T00:35:55.826Z,5.47
2023-01-01T00:40:57.850Z,5.48
2023-01-01T00:45:59.572Z,5.53
2023-01-01T00:51:01.859Z,5.54
2023-01-01T00:56:04.409Z,5.50
2023-01-01T01:01:06.165Z,5.44
2023-01-01T01:06:11.254Z,5.25
2023-01-01T01:11:22.020Z,5.09
2023-01-01T01:16:26.487Z,4.97
2023-01-01T01:21:30.619Z,5.01
2023-01-01T01:26:34.512Z,5.07
2023-01-01T01:31:36.245Z,5.06
2023-01-01T01:36:37.865Z,5.00
2023-01-01T01:41:39.668Z,5.16
2023-01-01T01:46:44.914Z,5.18
2023-01-01T01:51:46.558Z,5.09
2023-01-01T01:57:00.179Z,5.05
2023-01-01T02:02:02.698Z,4.98
2023-01-01T02:07:07.270Z,4.97
2023-01-01T02:12:09.000Z,4.84
2023-01-01T02:17:21.219Z,4.70
2023-01-01T02:22:33.021Z,4.57
2023-01-01T02:28:07.182Z,4.58
2023-01-01T02:33:17.935Z,4.87
2023-01-01T02:38:25.922Z,4.73
2023-01-01T02:43:27.736Z,4.70
2023-01-01T02:48:50.351Z,4.79
2023-01-01T02:54:04.127Z,4.96
2023-01-01T02:59:47.065Z,4.95
2023-01-01T03:05:13.744Z,4.95
2023-01-01T03:10:22.723Z,4.85
2023-01-01T03:15:30.583Z,4.68
2023-01-01T03:20:36.443Z,4.60
2023-01-01T03:25:45.808Z,4.57
2023-01-01T03:30:50.844Z,4.60
2023-01-01T03:36:18.248Z,4.50
2023-01-01T03:41:23.822Z,4.50
2023-01-01T03:46:30.998Z,4.48
2023-01-01T03:51:44.479Z,4.43
2023-01-01T03:56:52.344Z,4.37
2023-01-01T04:01:58.405Z,4.36
2023-01-01T04:07:14.069Z,4.36
2023-01-01T04:12:18.321Z,4.32
2023-01-01T04:17:20.126Z,4.32
2023-01-01T04:22:23.378Z,4.27
2023-01-01T04:27:25.298Z,4.16
2023-01-01T04:32:27.183Z,4.10
2023-01-01T04:37:28.793Z,4.05
2023-01-01T04:42:30.524Z,4.00
2023-01-01T04:47:32.540Z,3.92
2023-01-01T04:52:34.337Z,3.77
2023-01-01T04:57:35.995Z,3.64
2023-01-01T05:02:37.899Z,3.66
2023-01-01T05:07:39.564Z,3.64
2023-01-01T05:12:41.370Z,3.56
2023-01-01T05:17:43.182Z,3.47
2023-01-01T05:22:47.241Z,3.44
2023-01-01T05:27:48.814Z,3.48
2023-01-01T05:32:50.439Z,3.21
2023-01-01T05:37:52.035Z,3.25
2023-01-01T05:42:54.325Z,3.23
2023-01-01T05:47:56.717Z,3.23
2023-01-01T05:52:58.366Z,3.24
2023-01-01T05:57:59.960Z,2.97
2023-01-01T06:03:01.523Z,2.87
2023-01-01T06:08:03.132Z,2.92
2023-01-01T06:13:11.180Z,2.96
2023-01-01T06:18:14.861Z,2.93
2023-01-01T06:23:16.848Z,2.97
2023-01-01T06:28:18.589Z,2.93
2023-01-01T06:33:20.196Z,2.98
2023-01-01T06:38:22.073Z,2.93
2023-01-01T06:43:23.956Z,2.86
2023-01-01T06:48:25.567Z,2.87
2023-01-01T06:53:27.211Z,2.90
2023-01-01T06:58:29.003Z,2.89
2023-01-01T07:03:30.773Z,2.86
2023-01-01T07:08:32.609Z,2.90
2023-01-01T07:13:34.194Z,2.82
2023-01-01T07:18:36.443Z,2.77
2023-01-01T07:23:38.259Z,2.75
2023-01-01T07:28:41.097Z,2.77
2023-01-01T07:33:42.709Z,2.79
2023-01-01T07:38:44.309Z,2.74
2023-01-01T07:43:46.083Z,2.70
2023-01-01T07:48:48.002Z,2.76
2023-01-01T07:53:49.845Z,2.94
2023-01-01T07:58:51.691Z,3.10
2023-01-01T08:03:53.494Z,3.29
2023-01-01T08:08:55.351Z,3.35
2023-01-01T08:13:57.183Z,3.47
2023-01-01T08:18:58.786Z,3.54
2023-01-01T08:24:00.421Z,3.58
2023-01-01T08:29:05.055Z,3.58
2023-01-01T08:34:06.918Z,3.65
2023-01-01T08:39:08.945Z,3.64
2023-01-01T08:44:10.965Z,3.63
2023-01-01T08:49:13.164Z,3.67
2023-01-01T08:54:15.163Z,3.76
2023-01-01T08:59:16.987Z,3.84
2023-01-01T09:04:18.671Z,3.95
2023-01-01T09:09:22.319Z,4.13
2023-01-01T09:14:27.323Z,4.38
2023-01-01T09:19:28.959Z,4.68
2023-01-01T09:24:30.762Z,5.05
2023-01-01T09:29:32.339Z,5.26
2023-01-01T09:34:33.942Z,5.51
2023-01-01T09:39:35.772Z,5.66
2023-01-01T09:44:46.285Z,5.85
2023-01-01T09:49:50.038Z,5.92
2023-01-01T09:55:03.250Z,6.01
2023-01-01T10:00:15.523Z,6.17
2023-01-01T10:05:35.298Z,6.32
2023-01-01T10:11:15.188Z,6.50
2023-01-01T10:16:39.495Z,6.78
2023-01-01T10:21:47.206Z,7.00
2023-01-01T10:26:50.787Z,7.31
2023-01-01T10:31:55.192Z,7.54
2023-01-01T10:37:00.681Z,7.71
2023-01-01T10:42:03.458Z,7.87
2023-01-01T10:47:28.327Z,8.00
2023-01-01T10:52:36.053Z,8.04
2023-01-01T10:57:38.766Z,8.18
2023-01-01T11:02:40.439Z,8.15
2023-01-01T11:07:43.331Z,8.19
2023-01-01T11:18:36.123Z,8.33
2023-01-01T11:23:39.907Z,8.45
2023-01-01T11:28:42.126Z,8.60
2023-01-01T11:33:45.971Z,8.77
2023-01-01T11:38:51.102Z,8.95
2023-01-01T11:43:53.110Z,9.04
2023-01-01T11:48:55.234Z,9.24
2023-01-01T11:54:22.967Z,9.32
2023-01-01T11:59:30.142Z,9.46
2023-01-01T12:04:39.992Z,9.52
2023-01-01T12:09:51.252Z,9.64
2023-01-01T12:15:00.517Z,9.73
2023-01-01T12:20:11.104Z,9.85
2023-01-01T12:25:16.657Z,10.00
2023-01-01T12:30:26.028Z,10.09
2023-01-01T12:35:44.667Z,10.26
2023-01-01T12:41:15.471Z,10.32
2023-01-01T12:46:43.367Z,10.42
2023-01-01T12:52:07.867Z,10.52
2023-01-01T12:57:34.030Z,10.52
2023-01-01T13:02:46.983Z,10.56
2023-01-01T13:07:54.948Z,10.57
2023-01-01T13:12:57.232Z,10.52
2023-01-01T13:17:59.001Z,10.47
2023-01-01T13:23:00.608Z,10.29
2023-01-01T13:28:04.278Z,10.11
2023-01-01T13:33:33.222Z,9.95
2023-01-01T13:39:00.886Z,9.79
2023-01-01T13:44:05.140Z,9.73
2023-01-01T13:49:38.819Z,9.72
2023-01-01T13:55:10.548Z,9.64
2023-01-01T14:00:35.949Z,9.59
2023-01-01T14:05:58.636Z,9.53
2023-01-01T14:11:04.930Z,9.52
2023-01-01T14:16:10.884Z,9.45
2023-01-01T14:21:21.561Z,9.40
2023-01-01T14:26:26.256Z,9.39
2023-01-01T14:31:35.404Z,9.38
2023-01-01T14:36:37.026Z,9.28
2023-01-01T14:41:42.846Z,9.27
2023-01-01T14:46:48.275Z,9.22
2023-01-01T14:52:02.534Z,9.12
2023-01-01T14:57:10.639Z,9.14
2023-01-01T15:02:12.420Z,9.01
2023-01-01T15:07:22.272Z,8.87
2023-01-01T15:12:24.176Z,8.82
2023-01-01T15:17:27.249Z,8.74
2023-01-01T15:22:39.096Z,8.61
2023-01-01T15:27:41.092Z,8.54
2023-01-01T15:32:42.727Z,8.44
2023-01-01T15:37:52.504Z,8.35
2023-01-01T15:42:56.845Z,8.27
2023-01-01T15:48:17.630Z,8.18
2023-01-01T15:53:25.490Z,8.13
2023-01-01T15:58:35.163Z,8.14
2023-01-01T16:03:38.910Z,8.10
2023-01-01T16:08:40.689Z,8.13
2023-01-01T16:13:42.353Z,8.11
2023-01-01T16:18:44.396Z,8.08
2023-01-01T16:23:46.151Z,8.02
2023-01-01T16:28:48.363Z,7.95
2023-01-01T16:33:56.778Z,7.93
2023-01-01T16:38:59.365Z,7.96
2023-01-01T16:44:00.999Z,7.98
2023-01-01T16:49:04.539Z,7.92
2023-01-01T16:54:06.235Z,7.88
2023-01-01T16:59:07.916Z,7.85
2023-01-01T17:04:09.806Z,7.78
2023-01-01T17:09:11.629Z,7.76
2023-01-01T17:14:13.283Z,7.72
2023-01-01T17:19:16.709Z,7.69
2023-01-01T17:24:21.332Z,7.64
2023-01-01T17:29:24.830Z,7.57
2023-01-01T17:34:26.537Z,7.48
2023-01-01T17:39:28.138Z,7.42
2023-01-01T17:44:30.642Z,7.43
2023-01-01T17:49:32.273Z,7.38
2023-01-01T17:54:33.927Z,7.30
2023-01-01T17:59:35.567Z,7.21
2023-01-01T18:04:37.834Z,7.18
2023-01-01T18:09:40.420Z,7.15
2023-01-01T18:14:42.062Z,7.07
2023-01-01T18:19:43.687Z,7.05
2023-01-01T18:24:48.364Z,7.06
2023-01-01T18:29:50.334Z,7.07
2023-01-01T18:34:51.923Z,7.07
2023-01-01T18:39:53.737Z,7.00
2023-01-01T18:44:58.510Z,6.95
2023-01-01T18:50:14.403Z,6.91
2023-01-01T18:55:19.421Z,6.85
2023-01-01T19:00:26.086Z,6.79
2023-01-01T19:05:29.180Z,6.73
2023-01-01T19:10:44.291Z,6.69
2023-01-01T19:16:00.770Z,6.66
2023-01-01T19:21:11.616Z,6.65
2023-01-01T19:26:40.288Z,6.62
2023-01-01T19:31:42.162Z,6.64
2023-01-01T19:36:44.612Z,6.61
2023-01-01T19:41:46.934Z,6.60
2023-01-01T19:46:48.600Z,6.57
2023-01-01T19:51:51.373Z,6.54
2023-01-01T19:56:53.532Z,6.48
2023-01-01T20:02:25.840Z,6.47
2023-01-01T20:07:17.480Z,6.48
2023-01-01T20:12:19.083Z,6.47
2023-01-01T20:17:20.805Z,6.47
2023-01-01T20:22:22.584Z,6.47
2023-01-01T20:27:26.958Z,6.47
2023-01-01T20:32:29.005Z,6.49
2023-01-01T20:37:36.614Z,6.47
2023-01-01T20:42:38.258Z,6.46
2023-01-01T20:47:39.903Z,6.44
2023-01-01T20:52:41.512Z,6.37
2023-01-01T20:57:43.147Z,6.38
2023-01-01T21:02:45.060Z,6.41
2023-01-01T21:07:46.709Z,6.43
2023-01-01T21:12:48.286Z,6.48
2023-01-01T21:17:50.089Z,6.55
2023-01-01T21:22:52.303Z,6.61
2023-01-01T21:27:54.120Z,6.71
2023-01-01T21:32:55.793Z,6.76
2023-01-01T21:37:58.976Z,6.81
2023-01-01T21:43:19.281Z,6.84
2023-01-01T21:49:02.959Z,6.85
2023-01-01T21:54:10.709Z,6.91
2023-01-01T21:59:28.798Z,6.91
2023-01-01T22:04:40.877Z,6.96
2023-01-01T22:09:46.289Z,7.01
2023-01-01T22:14:50.577Z,7.07
2023-01-01T22:19:54.907Z,7.09
2023-01-01T22:24:59.681Z,7.12
2023-01-01T22:30:41.138Z,7.13
2023-01-01T22:35:42.983Z,7.13
2023-01-01T22:40:48.712Z,7.15
2023-01-01T22:45:50.847Z,7.20
2023-01-01T22:50:54.166Z,7.24
2023-01-01T22:55:56.872Z,7.29
2023-01-01T23:00:58.474Z,7.31
2023-01-01T23:06:00.438Z,7.34
2023-01-01T23:11:02.656Z,7.35
2023-01-01T23:16:04.992Z,7.38
2023-01-01T23:21:11.318Z,7.40
2023-01-01T23:26:13.074Z,7.44
2023-01-01T23:31:24.319Z,7.43
2023-01-01T23:36:28.480Z,7.47
2023-01-01T23:41:30.385Z,7.50
2023-01-01T23:46:34.540Z,7.49
2023-01-01T23:51:38.688Z,7.45
2023-01-01T23:56:40.330Z,7.52
